Time;durP1;ratioP1;P1;durP2;ratioP2;P2;SDS_P1;SDS_P2;PMS_P1;PMS_P2;Temp;Humidity;BMP_temperature;BMP_pressure;BME280_temperature;BME280_humidity;BME280_pressure;Samples;Min_cycle;Max_cycle;Signal;HPM_P1;HPM_P2
2021/12/31 00:00:47;;;;;;;8.75;4.45;;;12.00;99.90;;;;;;5029871;28;20041;-72
2021/12/31 00:03:14;;;;;;;9.65;5.30;;;12.00;99.90;;;;;;5020952;28;20033;-72
2021/12/31 00:05:40;;;;;;;10.13;5.68;;;12.00;99.90;;;;;;5033863;28;20029;-74
2021/12/31 00:08:05;;;;;;;8.70;5.30;;;12.10;99.90;;;;;;5033950;28;20033;-71
2021/12/31 00:10:31;;;;;;;10.73;5.82;;;12.10;99.90;;;;;;5027972;28;20052;-71
2021/12/31 00:12:57;;;;;;;9.48;5.32;;;12.10;99.90;;;;;;5032987;28;20014;-73
2021/12/31 00:15:23;;;;;;;9.60;5.75;;;12.10;99.90;;;;;;5036084;28;20064;-73
2021/12/31 00:17:49;;;;;;;14.18;7.03;;;12.10;99.90;;;;;;5032358;28;20045;-72
2021/12/31 00:20:18;;;;;;;10.68;6.95;;;12.10;99.90;;;;;;5036338;28;20033;-72
2021/12/31 00:23:02;;;;;;;16.08;7.10;;;12.10;99.90;;;;;;5033703;28;20045;-72
2021/12/31 00:25:29;;;;;;;15.38;7.50;;;12.10;99.90;;;;;;5034013;28;20070;-74
2021/12/31 00:27:55;;;;;;;11.70;7.30;;;12.10;99.90;;;;;;5028091;28;20563;-74
2021/12/31 00:30:21;;;;;;;18.10;7.47;;;12.10;99.90;;;;;;5037582;28;20024;-74
2021/12/31 00:32:48;;;;;;;13.65;7.43;;;12.10;99.90;;;;;;5031998;28;20029;-72
2021/12/31 00:35:14;;;;;;;16.67;7.60;;;12.10;99.90;;;;;;5032956;28;20022;-72
2021/12/31 00:37:42;;;;;;;15.13;7.32;;;12.10;99.90;;;;;;5027167;28;20034;-72
2021/12/31 00:40:10;;;;;;;17.15;8.48;;;12.10;99.90;;;;;;5022453;28;20022;-72
2021/12/31 00:42:37;;;;;;;14.55;8.32;;;12.10;99.90;;;;;;5033321;28;20451;-72
2021/12/31 00:45:05;;;;;;;13.63;8.07;;;12.10;99.90;;;;;;5032213;28;20026;-72
2021/12/31 00:47:30;;;;;;;16.92;7.65;;;12.10;99.90;;;;;;5034924;28;20017;-74
2021/12/31 00:49:56;;;;;;;16.55;8.68;;;12.10;99.90;;;;;;5037826;28;20600;-71
2021/12/31 00:52:22;;;;;;;17.35;8.95;;;12.10;99.90;;;;;;5022869;28;20018;-72
2021/12/31 00:54:48;;;;;;;19.85;10.02;;;12.10;99.90;;;;;;5032238;28;20040;-72
2021/12/31 00:57:13;;;;;;;17.27;8.77;;;12.10;99.90;;;;;;5032854;28;20028;-72
2021/12/31 00:59:40;;;;;;;16.75;8.40;;;12.10;99.90;;;;;;5029194;28;20022;-72
2021/12/31 01:02:07;;;;;;;21.35;8.73;;;12.10;99.90;;;;;;5026975;28;20156;-72
2021/12/31 01:04:33;;;;;;;16.45;8.55;;;12.10;99.90;;;;;;5025018;28;20054;-72
2021/12/31 01:07:01;;;;;;;22.65;9.60;;;12.10;99.90;;;;;;5028682;28;20496;-72
2021/12/31 01:09:28;;;;;;;14.05;8.93;;;12.10;99.90;;;;;;5033093;28;20026;-72
2021/12/31 01:11:56;;;;;;;21.70;10.32;;;12.10;99.90;;;;;;5027448;28;20434;-72
2021/12/31 01:14:33;;;;;;;26.38;11.40;;;12.10;99.90;;;;;;5034237;28;20029;-72
2021/12/31 01:17:03;;;;;;;23.75;10.43;;;12.10;99.90;;;;;;5027381;28;20076;-73
2021/12/31 01:19:49;;;;;;;23.83;10.88;;;12.10;99.90;;;;;;5027628;28;20064;-73
2021/12/31 01:22:29;;;;;;;21.95;11.45;;;12.10;99.90;;;;;;5028590;28;20040;-73
2021/12/31 01:24:54;;;;;;;26.45;10.93;;;12.10;99.90;;;;;;5030450;28;20034;-73
2021/12/31 01:27:20;;;;;;;24.05;11.85;;;12.10;99.90;;;;;;5028984;28;20036;-75
2021/12/31 01:29:46;;;;;;;19.27;10.40;;;12.10;99.90;;;;;;5027775;28;20053;-72
2021/12/31 01:32:12;;;;;;;20.13;9.98;;;12.10;99.90;;;;;;5032113;28;20045;-70
2021/12/31 01:34:38;;;;;;;25.05;10.65;;;12.10;99.90;;;;;;5026077;28;20033;-70
2021/12/31 01:37:04;;;;;;;23.08;10.23;;;12.10;99.90;;;;;;5028076;28;21602;-70
2021/12/31 01:39:30;;;;;;;18.58;9.35;;;12.10;99.90;;;;;;5027326;28;20026;-73
2021/12/31 01:41:58;;;;;;;24.95;10.38;;;12.10;99.90;;;;;;5032349;28;20053;-70
2021/12/31 01:44:35;;;;;;;20.45;9.07;;;12.10;99.90;;;;;;5023337;28;20036;-70
2021/12/31 01:47:05;;;;;;;23.08;9.73;;;12.10;99.90;;;;;;5028992;28;20025;-70
2021/12/31 01:49:37;;;;;;;24.75;9.77;;;12.10;99.90;;;;;;5040047;28;20437;-71
2021/12/31 01:52:04;;;;;;;25.67;9.80;;;12.10;99.90;;;;;;5030311;28;20040;-72
2021/12/31 01:54:31;;;;;;;22.90;9.57;;;12.10;99.90;;;;;;5035147;28;20099;-72
2021/12/31 01:57:00;;;;;;;27.17;10.40;;;12.10;99.90;;;;;;5034332;28;20475;-75
2021/12/31 01:59:27;;;;;;;18.98;8.95;;;12.00;99.90;;;;;;5031772;28;20053;-72
2021/12/31 02:01:55;;;;;;;17.23;9.07;;;12.10;99.90;;;;;;5030636;28;20052;-72
2021/12/31 02:04:20;;;;;;;20.85;9.80;;;12.10;99.90;;;;;;5033603;28;20021;-73
2021/12/31 02:06:46;;;;;;;21.27;9.68;;;12.10;99.90;;;;;;5040343;28;20033;-72
2021/12/31 02:09:13;;;;;;;20.30;8.38;;;12.00;99.90;;;;;;5033638;28;20087;-73
2021/12/31 02:11:39;;;;;;;16.30;7.78;;;12.00;99.90;;;;;;5038649;28;20028;-72
2021/12/31 02:14:06;;;;;;;24.08;8.93;;;12.10;99.90;;;;;;5033257;28;20026;-72
2021/12/31 02:16:32;;;;;;;20.98;8.80;;;12.00;99.90;;;;;;5028973;28;20113;-72
2021/12/31 02:19:09;;;;;;;26.10;8.88;;;12.00;99.90;;;;;;5022049;28;20033;-73
2021/12/31 02:21:34;;;;;;;20.67;9.00;;;12.00;99.90;;;;;;5025763;28;20033;-73
2021/12/31 02:24:05;;;;;;;20.73;7.30;;;12.00;99.90;;;;;;5021935;28;20168;-74
2021/12/31 02:26:31;;;;;;;27.80;9.57;;;12.00;99.90;;;;;;5032282;28;20022;-73
2021/12/31 02:28:57;;;;;;;25.30;8.82;;;12.00;99.90;;;;;;5032900;28;20028;-73
2021/12/31 02:31:23;;;;;;;23.35;8.18;;;12.00;99.90;;;;;;5030413;28;20494;-73
2021/12/31 02:33:49;;;;;;;20.77;7.82;;;12.00;99.90;;;;;;5032231;28;20105;-73
2021/12/31 02:36:17;;;;;;;29.48;8.02;;;12.00;99.90;;;;;;5033853;28;20029;-72
2021/12/31 02:38:44;;;;;;;22.23;8.05;;;12.00;99.90;;;;;;5038550;28;20069;-74
2021/12/31 02:41:10;;;;;;;21.48;8.20;;;12.00;99.90;;;;;;5026220;28;20056;-71
2021/12/31 02:43:37;;;;;;;17.75;7.22;;;12.00;99.90;;;;;;5028942;28;20033;-72
2021/12/31 02:46:03;;;;;;;19.67;7.35;;;12.00;99.90;;;;;;5029581;28;20490;-74
2021/12/31 02:48:28;;;;;;;21.65;7.68;;;12.00;99.90;;;;;;5029608;28;20030;-72
2021/12/31 02:50:58;;;;;;;24.15;7.45;;;12.00;99.90;;;;;;5032355;28;20632;-72
2021/12/31 02:53:36;;;;;;;21.90;7.50;;;12.00;99.90;;;;;;5024802;28;20101;-72
2021/12/31 02:56:05;;;;;;;13.25;7.03;;;12.00;99.90;;;;;;5033776;28;20029;-72
2021/12/31 02:58:32;;;;;;;21.65;7.85;;;12.00;99.90;;;;;;5025464;28;20116;-73
2021/12/31 03:00:59;;;;;;;18.38;7.40;;;12.00;99.90;;;;;;5031490;28;20437;-72
2021/12/31 03:03:25;;;;;;;24.25;8.68;;;12.00;99.90;;;;;;5022055;28;20403;-72
2021/12/31 03:05:54;;;;;;;25.05;8.85;;;12.00;99.90;;;;;;5025092;28;20030;-72
2021/12/31 03:08:23;;;;;;;21.65;7.38;;;12.00;99.90;;;;;;5046457;28;20433;-72
2021/12/31 03:10:50;;;;;;;24.65;7.93;;;12.00;99.90;;;;;;5030566;28;20095;-72
2021/12/31 03:13:16;;;;;;;20.35;7.30;;;12.10;99.90;;;;;;5034708;28;20606;-73
2021/12/31 03:15:42;;;;;;;23.13;7.82;;;12.10;99.90;;;;;;5035132;28;20060;-72
2021/12/31 03:18:10;;;;;;;17.58;7.43;;;12.00;99.90;;;;;;5030056;28;20064;-72
2021/12/31 03:20:37;;;;;;;19.75;7.78;;;12.00;99.90;;;;;;5039569;28;20033;-74
2021/12/31 03:23:05;;;;;;;16.67;7.20;;;12.00;99.90;;;;;;5027994;28;20057;-73
2021/12/31 03:25:31;;;;;;;17.92;7.03;;;12.00;99.90;;;;;;5029406;28;20033;-72
2021/12/31 03:27:57;;;;;;;14.60;6.50;;;12.00;99.90;;;;;;5032045;28;20090;-73
2021/12/31 03:30:22;;;;;;;17.75;6.82;;;12.00;99.90;;;;;;5016809;28;20104;-73
2021/12/31 03:32:48;;;;;;;16.55;7.63;;;12.10;99.90;;;;;;5036092;28;20540;-73
2021/12/31 03:35:17;;;;;;;16.42;7.38;;;12.00;99.90;;;;;;5029175;28;20100;-72
2021/12/31 03:37:42;;;;;;;22.23;7.15;;;12.00;99.90;;;;;;5036377;28;20040;-73
2021/12/31 03:40:09;;;;;;;13.63;6.05;;;12.10;99.90;;;;;;5030077;28;20022;-72
2021/12/31 03:42:34;;;;;;;14.75;6.38;;;12.10;99.90;;;;;;5035031;28;20534;-74
2021/12/31 03:45:00;;;;;;;15.48;6.43;;;12.10;99.90;;;;;;5026237;28;20029;-73
2021/12/31 03:47:26;;;;;;;13.98;6.32;;;12.00;99.90;;;;;;5041609;28;20132;-73
2021/12/31 03:49:51;;;;;;;19.15;7.22;;;12.00;99.90;;;;;;5025133;28;20032;-73
2021/12/31 03:52:17;;;;;;;22.55;7.70;;;12.00;99.90;;;;;;5028192;28;20411;-73
2021/12/31 03:54:43;;;;;;;16.10;6.55;;;12.00;99.90;;;;;;5030783;28;20060;-73
2021/12/31 03:57:08;;;;;;;17.08;6.30;;;12.00;99.90;;;;;;5025246;28;20026;-72
2021/12/31 03:59:34;;;;;;;15.00;6.78;;;12.00;99.90;;;;;;5035680;28;20030;-72
2021/12/31 04:01:59;;;;;;;13.27;6.10;;;12.10;99.90;;;;;;5032478;28;20076;-72
2021/12/31 04:04:25;;;;;;;21.02;6.95;;;12.10;99.90;;;;;;5033695;28;20040;-72
2021/12/31 04:06:51;;;;;;;18.42;6.53;;;12.00;99.90;;;;;;5033479;28;20028;-73
2021/12/31 04:09:17;;;;;;;16.73;7.20;;;12.00;99.90;;;;;;5037766;28;20075;-73
2021/12/31 04:11:43;;;;;;;16.23;6.40;;;12.00;99.90;;;;;;5029287;28;20029;-72
2021/12/31 04:14:08;;;;;;;17.77;7.07;;;12.00;99.90;;;;;;5034177;28;20083;-76
2021/12/31 04:16:34;;;;;;;18.40;6.90;;;12.10;99.90;;;;;;5027763;28;20029;-73
2021/12/31 04:19:00;;;;;;;14.52;6.00;;;12.10;99.90;;;;;;5027527;28;20104;-74
2021/12/31 04:21:27;;;;;;;18.00;6.53;;;12.00;99.90;;;;;;5024940;28;20026;-73
2021/12/31 04:24:16;;;;;;;14.50;6.00;;;12.00;99.90;;;;;;5032498;28;20107;-73
2021/12/31 04:26:42;;;;;;;27.25;8.15;;;12.00;99.90;;;;;;5028901;28;20549;-73
2021/12/31 04:29:08;;;;;;;15.98;6.13;;;12.00;99.90;;;;;;5023682;28;20030;-73
2021/12/31 04:31:33;;;;;;;15.50;5.30;;;12.00;99.90;;;;;;5027286;28;20731;-72
2021/12/31 04:34:04;;;;;;;23.92;7.22;;;12.00;99.90;;;;;;5026944;28;20021;-72
2021/12/31 04:36:29;;;;;;;19.97;6.17;;;12.00;99.90;;;;;;5029738;28;20087;-72
2021/12/31 04:38:55;;;;;;;17.55;5.68;;;12.00;99.90;;;;;;5027120;28;20022;-72
2021/12/31 04:41:21;;;;;;;19.48;5.57;;;12.00;99.90;;;;;;5033022;28;20037;-73
2021/12/31 04:43:46;;;;;;;18.95;6.10;;;12.00;99.90;;;;;;5021159;28;20044;-72
2021/12/31 04:46:12;;;;;;;18.25;5.65;;;12.00;99.90;;;;;;5032367;28;20159;-72
2021/12/31 04:48:37;;;;;;;11.85;4.88;;;12.00;99.90;;;;;;5034498;28;20067;-72
2021/12/31 04:51:03;;;;;;;14.38;4.85;;;12.00;99.90;;;;;;5030384;28;20022;-72
2021/12/31 04:53:29;;;;;;;14.02;4.25;;;12.00;99.90;;;;;;5039778;28;20032;-72
2021/12/31 04:55:54;;;;;;;19.40;4.88;;;12.00;99.90;;;;;;5032861;28;20017;-73
2021/12/31 04:58:20;;;;;;;18.27;5.35;;;12.10;99.90;;;;;;5033114;28;20487;-72
2021/12/31 05:00:46;;;;;;;20.45;4.45;;;12.10;99.90;;;;;;5034958;28;20108;-72
2021/12/31 05:03:11;;;;;;;16.20;4.88;;;12.10;99.90;;;;;;5031824;28;20049;-73
2021/12/31 05:05:38;;;;;;;15.15;5.03;;;12.10;99.90;;;;;;5021522;28;20045;-72
2021/12/31 05:08:04;;;;;;;15.70;4.78;;;12.10;99.90;;;;;;5029391;28;20060;-72
2021/12/31 05:10:31;;;;;;;22.23;5.50;;;12.10;99.90;;;;;;5029705;28;20026;-73
2021/12/31 05:13:02;;;;;;;13.90;4.32;;;12.10;99.90;;;;;;5037621;28;20478;-73
2021/12/31 05:15:33;;;;;;;21.10;4.68;;;12.10;99.90;;;;;;5032053;28;20042;-72
2021/12/31 05:17:59;;;;;;;19.15;4.70;;;12.00;99.90;;;;;;5032952;28;20100;-73
2021/12/31 05:20:25;;;;;;;11.85;4.90;;;12.00;99.90;;;;;;5030258;28;20105;-72
2021/12/31 05:22:52;;;;;;;14.00;4.22;;;12.00;99.90;;;;;;5030690;28;20076;-73
2021/12/31 05:25:19;;;;;;;14.63;4.75;;;12.10;99.90;;;;;;5024464;28;20427;-72
2021/12/31 05:27:44;;;;;;;15.70;4.65;;;12.10;99.90;;;;;;5023836;28;20033;-72
2021/12/31 05:30:11;;;;;;;12.70;4.55;;;12.10;99.90;;;;;;5035528;28;20025;-73
2021/12/31 05:32:37;;;;;;;11.85;4.05;;;12.10;99.90;;;;;;5030335;28;20105;-73
2021/12/31 05:35:03;;;;;;;12.18;4.22;;;12.10;99.90;;;;;;5021579;28;20105;-72
2021/12/31 05:37:29;;;;;;;10.43;4.07;;;12.10;99.90;;;;;;5025682;28;20040;-72
2021/12/31 05:39:54;;;;;;;11.40;4.25;;;12.10;99.90;;;;;;5033903;28;20033;-73
2021/12/31 05:42:20;;;;;;;11.80;4.18;;;12.10;99.90;;;;;;5040923;28;20036;-73
2021/12/31 05:44:48;;;;;;;15.75;4.32;;;12.20;99.90;;;;;;5031407;28;20041;-72
2021/12/31 05:47:14;;;;;;;8.32;3.88;;;12.20;99.90;;;;;;5042343;28;20042;-72
2021/12/31 05:49:39;;;;;;;11.27;4.68;;;12.20;99.90;;;;;;5027166;28;20029;-73
2021/12/31 05:52:05;;;;;;;12.20;5.05;;;12.20;99.90;;;;;;5025255;28;20045;-72
2021/12/31 05:54:31;;;;;;;22.98;6.30;;;12.20;99.90;;;;;;5033812;28;20475;-72
2021/12/31 05:56:57;;;;;;;16.35;5.53;;;12.10;99.90;;;;;;5030499;28;20039;-73
2021/12/31 05:59:22;;;;;;;14.82;5.45;;;12.10;99.90;;;;;;5035767;28;20475;-73
2021/12/31 06:01:48;;;;;;;14.57;5.93;;;12.20;99.90;;;;;;5028815;28;20249;-74
2021/12/31 06:04:14;;;;;;;15.18;5.65;;;12.20;99.90;;;;;;5030941;28;20051;-72
2021/12/31 06:06:40;;;;;;;16.67;6.15;;;12.20;99.90;;;;;;5031964;28;20699;-71
2021/12/31 06:09:11;;;;;;;15.18;5.55;;;12.20;99.90;;;;;;5032504;28;20104;-72
2021/12/31 06:11:38;;;;;;;11.82;5.75;;;12.20;99.90;;;;;;5024204;28;20025;-73
2021/12/31 06:14:05;;;;;;;9.20;5.20;;;12.20;99.90;;;;;;5026817;28;20029;-72
2021/12/31 06:16:41;;;;;;;12.40;6.03;;;12.20;99.90;;;;;;5032553;28;20103;-72
2021/12/31 06:19:11;;;;;;;16.15;6.50;;;12.20;99.90;;;;;;5030627;28;20096;-72
2021/12/31 06:21:39;;;;;;;14.10;5.95;;;12.30;99.90;;;;;;5035674;28;20111;-73
2021/12/31 06:24:05;;;;;;;14.52;6.20;;;12.20;99.90;;;;;;5041618;28;20821;-74
2021/12/31 06:26:31;;;;;;;14.95;7.03;;;12.20;99.90;;;;;;5034765;28;20034;-73
2021/12/31 06:28:57;;;;;;;16.17;7.53;;;12.20;99.90;;;;;;5030170;28;20035;-72
2021/12/31 06:31:23;;;;;;;20.90;8.30;;;12.20;99.90;;;;;;5031188;28;20037;-72
2021/12/31 06:33:50;;;;;;;12.57;7.85;;;12.20;99.90;;;;;;5038318;28;20714;-72
2021/12/31 06:36:17;;;;;;;16.75;8.18;;;12.20;99.90;;;;;;5007537;28;20029;-72
2021/12/31 06:38:43;;;;;;;16.00;8.65;;;12.20;99.90;;;;;;5026859;28;20061;-72
2021/12/31 06:41:09;;;;;;;19.75;9.23;;;12.20;99.90;;;;;;5033453;28;20033;-73
2021/12/31 06:43:35;;;;;;;16.38;9.00;;;12.20;99.90;;;;;;5026703;28;20487;-72
2021/12/31 06:46:01;;;;;;;13.43;8.57;;;12.20;99.90;;;;;;5018943;28;20036;-72
2021/12/31 06:48:27;;;;;;;14.18;9.45;;;12.20;99.90;;;;;;5036729;28;20544;-72
2021/12/31 06:50:52;;;;;;;17.25;9.75;;;12.10;99.90;;;;;;5030726;28;20517;-71
2021/12/31 06:53:18;;;;;;;13.02;9.27;;;12.10;99.90;;;;;;5027831;28;20097;-72
2021/12/31 06:55:44;;;;;;;17.00;9.48;;;12.10;99.90;;;;;;5030164;28;20022;-72
2021/12/31 06:58:10;;;;;;;19.27;8.82;;;12.10;99.90;;;;;;5025571;28;20030;-71
2021/12/31 07:00:36;;;;;;;17.92;10.93;;;12.10;99.90;;;;;;5039213;28;20195;-71
2021/12/31 07:03:04;;;;;;;14.43;9.77;;;12.10;99.90;;;;;;5028635;28;20032;-71
2021/12/31 07:05:30;;;;;;;15.38;9.77;;;12.20;99.90;;;;;;5029548;28;20972;-73
2021/12/31 07:07:56;;;;;;;15.57;10.10;;;12.10;99.90;;;;;;5029489;28;20030;-71
2021/12/31 07:10:21;;;;;;;15.30;9.52;;;12.10;99.90;;;;;;5035065;28;20026;-73
2021/12/31 07:12:47;;;;;;;14.77;8.68;;;12.10;99.90;;;;;;5028821;28;20116;-72
2021/12/31 07:15:12;;;;;;;18.42;9.38;;;12.20;99.90;;;;;;5034430;28;20031;-74
2021/12/31 07:17:38;;;;;;;15.18;10.02;;;12.20;99.90;;;;;;5034463;28;20072;-73
2021/12/31 07:20:05;;;;;;;19.77;10.13;;;12.20;99.90;;;;;;5033048;28;20034;-73
2021/12/31 07:22:33;;;;;;;18.55;9.93;;;12.20;99.90;;;;;;5031819;28;20454;-74
2021/12/31 07:24:59;;;;;;;14.18;9.50;;;12.20;99.90;;;;;;5039345;28;20100;-73
2021/12/31 07:27:25;;;;;;;15.10;9.63;;;12.20;99.90;;;;;;5039159;28;20123;-73
2021/12/31 07:29:50;;;;;;;13.98;9.93;;;12.20;99.90;;;;;;5011577;28;20029;-73
2021/12/31 07:32:16;;;;;;;17.98;9.82;;;12.20;99.90;;;;;;5038681;28;20379;-72
2021/12/31 07:34:42;;;;;;;11.90;9.32;;;12.20;99.90;;;;;;5034616;28;20479;-73
2021/12/31 07:37:07;;;;;;;12.80;9.43;;;12.20;99.90;;;;;;5030497;28;20569;-74
2021/12/31 07:39:35;;;;;;;17.13;9.95;;;12.20;99.90;;;;;;5039086;28;20589;-72
2021/12/31 07:42:00;;;;;;;16.60;10.35;;;12.20;99.90;;;;;;5034531;28;20026;-71
2021/12/31 07:44:26;;;;;;;18.70;10.77;;;12.20;99.90;;;;;;5032498;28;20117;-72
2021/12/31 07:46:52;;;;;;;14.73;10.07;;;12.20;99.90;;;;;;5036499;28;20033;-75
2021/12/31 07:49:17;;;;;;;16.02;10.77;;;12.30;99.90;;;;;;5033305;28;20092;-71
2021/12/31 07:51:43;;;;;;;15.55;10.38;;;12.20;99.90;;;;;;5034150;28;20029;-74
2021/12/31 07:54:09;;;;;;;17.05;10.48;;;12.20;99.90;;;;;;5038641;28;20072;-76
2021/12/31 07:56:35;;;;;;;13.15;9.10;;;12.30;99.90;;;;;;5037144;28;20044;-71
2021/12/31 07:59:01;;;;;;;20.75;10.25;;;12.30;99.90;;;;;;5033235;28;20025;-71
2021/12/31 08:01:27;;;;;;;14.27;10.23;;;12.30;99.90;;;;;;5032901;28;20131;-73
2021/12/31 08:03:52;;;;;;;14.65;10.73;;;12.30;99.90;;;;;;5032465;28;20598;-73
2021/12/31 08:06:18;;;;;;;12.38;9.13;;;12.30;99.90;;;;;;5029898;28;20483;-72
2021/12/31 08:08:43;;;;;;;11.52;8.60;;;12.30;99.90;;;;;;5029851;28;20028;-71
2021/12/31 08:11:09;;;;;;;14.60;8.75;;;12.30;99.90;;;;;;5036902;28;20100;-74
2021/12/31 08:13:35;;;;;;;15.57;9.35;;;12.30;99.90;;;;;;5029186;28;21175;-72
2021/12/31 08:16:00;;;;;;;15.60;8.77;;;12.30;99.90;;;;;;5026963;28;20030;-74
2021/12/31 08:18:26;;;;;;;14.45;8.82;;;12.40;99.90;;;;;;5029985;28;20029;-73
2021/12/31 08:20:52;;;;;;;11.65;7.95;;;12.40;99.90;;;;;;5037463;28;20049;-76
2021/12/31 08:23:18;;;;;;;10.25;8.40;;;12.40;99.90;;;;;;5035872;28;20032;-73
2021/12/31 08:25:44;;;;;;;11.93;8.18;;;12.50;99.90;;;;;;5031553;28;20026;-74
2021/12/31 08:28:10;;;;;;;14.82;8.65;;;12.40;99.90;;;;;;5031212;28;20490;-74
2021/12/31 08:30:36;;;;;;;13.95;8.45;;;12.40;99.90;;;;;;5026753;28;20039;-74
2021/12/31 08:33:03;;;;;;;16.75;8.13;;;12.40;99.90;;;;;;5032072;28;20021;-73
2021/12/31 08:35:29;;;;;;;14.52;7.55;;;12.40;99.90;;;;;;5028943;28;20049;-73
2021/12/31 08:37:55;;;;;;;9.65;7.95;;;12.50;99.90;;;;;;5033081;28;20053;-73
2021/12/31 08:40:21;;;;;;;9.63;7.05;;;12.50;99.90;;;;;;5023612;28;20701;-73
2021/12/31 08:42:47;;;;;;;11.05;7.85;;;12.50;99.90;;;;;;5027264;28;20108;-74
2021/12/31 08:45:12;;;;;;;12.35;6.75;;;12.50;99.90;;;;;;5029803;28;20076;-76
2021/12/31 08:47:38;;;;;;;12.00;7.35;;;12.50;99.90;;;;;;5028457;28;20445;-74
2021/12/31 08:50:04;;;;;;;12.45;7.45;;;12.50;99.90;;;;;;5032380;28;20472;-73
2021/12/31 08:52:30;;;;;;;11.25;7.53;;;12.50;99.90;;;;;;5035624;28;20093;-75
2021/12/31 08:54:56;;;;;;;9.82;7.18;;;12.50;99.90;;;;;;5034574;28;20140;-75
2021/12/31 08:57:21;;;;;;;8.98;6.40;;;12.60;99.90;;;;;;5017530;28;20158;-76
2021/12/31 08:59:47;;;;;;;7.75;6.07;;;12.60;99.90;;;;;;5034199;28;20101;-75
2021/12/31 09:02:13;;;;;;;9.07;5.22;;;12.60;99.90;;;;;;5022352;28;20029;-76
2021/12/31 09:04:39;;;;;;;7.03;5.18;;;12.70;99.90;;;;;;5024156;28;20041;-75
2021/12/31 09:07:05;;;;;;;10.63;5.18;;;12.80;99.90;;;;;;5030861;28;20492;-75
2021/12/31 09:09:31;;;;;;;7.50;5.00;;;12.80;99.90;;;;;;5032357;28;20022;-74
2021/12/31 09:11:56;;;;;;;9.98;4.97;;;12.80;99.90;;;;;;5017107;28;20079;-76
2021/12/31 09:14:23;;;;;;;9.00;4.75;;;12.80;99.90;;;;;;5032855;28;20025;-75
2021/12/31 09:16:50;;;;;;;8.20;4.30;;;12.80;99.90;;;;;;5035946;28;20104;-76
2021/12/31 09:19:16;;;;;;;7.80;4.13;;;12.80;99.90;;;;;;5032764;28;20079;-76
2021/12/31 09:21:42;;;;;;;9.57;4.35;;;12.80;99.90;;;;;;5023921;28;20037;-75
2021/12/31 09:24:08;;;;;;;8.25;3.88;;;12.90;99.90;;;;;;5027501;28;20017;-77
2021/12/31 09:26:34;;;;;;;6.55;3.83;;;12.90;99.90;;;;;;5044850;28;20029;-76
2021/12/31 09:29:00;;;;;;;7.80;4.10;;;12.90;99.90;;;;;;5037365;28;20017;-76
2021/12/31 09:31:25;;;;;;;5.80;3.45;;;12.80;99.90;;;;;;5023593;28;20076;-75
2021/12/31 09:33:51;;;;;;;8.25;4.28;;;12.90;99.90;;;;;;5036657;28;20025;-76
2021/12/31 09:36:17;;;;;;;5.90;3.75;;;12.90;99.90;;;;;;5034015;28;20104;-76
2021/12/31 09:38:42;;;;;;;6.70;3.55;;;12.80;99.90;;;;;;5029782;28;20621;-74
2021/12/31 09:41:09;;;;;;;5.18;3.17;;;12.80;99.90;;;;;;5019751;28;20494;-74
2021/12/31 09:43:38;;;;;;;5.72;3.42;;;12.90;99.90;;;;;;5027844;28;20035;-74
2021/12/31 09:46:04;;;;;;;7.57;3.45;;;12.80;99.90;;;;;;5028904;28;20495;-74
2021/12/31 09:48:29;;;;;;;7.38;3.10;;;12.90;99.90;;;;;;5031593;28;20025;-75
2021/12/31 09:50:56;;;;;;;7.05;4.00;;;13.00;99.90;;;;;;5036375;28;20471;-74
2021/12/31 09:53:25;;;;;;;6.30;3.30;;;13.00;99.90;;;;;;5020482;28;20116;-74
2021/12/31 09:55:55;;;;;;;5.07;3.20;;;13.00;99.90;;;;;;5030627;28;21545;-74
2021/12/31 09:58:25;;;;;;;6.85;3.65;;;12.90;99.90;;;;;;5036202;28;20040;-75
2021/12/31 10:00:57;;;;;;;6.93;3.20;;;12.90;99.90;;;;;;5022326;28;20018;-76
2021/12/31 10:03:29;;;;;;;5.85;3.10;;;12.90;99.90;;;;;;5026186;28;20032;-74
2021/12/31 10:05:56;;;;;;;8.65;4.13;;;13.00;99.90;;;;;;5035405;28;20056;-74
2021/12/31 10:08:30;;;;;;;6.25;3.33;;;13.00;99.90;;;;;;5036761;28;20028;-75
2021/12/31 10:11:22;;;;;;;5.15;3.03;;;13.00;99.90;;;;;;5037283;28;20025;-77
2021/12/31 10:13:51;;;;;;;4.13;2.80;;;13.00;99.90;;;;;;5025817;28;20156;-75
2021/12/31 10:16:28;;;;;;;6.15;2.92;;;13.00;99.90;;;;;;5034634;28;20029;-75
2021/12/31 10:20:07;;;;;;;4.88;2.88;;;13.00;99.90;;;;;;5061634;28;20410;-76
2021/12/31 10:22:32;;;;;;;4.88;2.85;;;13.00;99.90;;;;;;5053610;28;20071;-76
2021/12/31 10:24:58;;;;;;;7.03;3.08;;;13.00;99.90;;;;;;5051079;28;20445;-75
2021/12/31 10:27:25;;;;;;;6.07;3.30;;;13.00;99.90;;;;;;5047152;28;20283;-75
2021/12/31 10:29:58;;;;;;;7.97;3.40;;;13.00;99.90;;;;;;5034674;28;20504;-75
2021/12/31 10:32:33;;;;;;;8.10;3.30;;;13.00;99.90;;;;;;5033621;28;20040;-75
2021/12/31 10:35:10;;;;;;;8.57;3.80;;;13.00;99.90;;;;;;5033035;28;20096;-75
2021/12/31 10:37:57;;;;;;;9.25;3.20;;;13.00;99.90;;;;;;5031798;28;20045;-75
2021/12/31 10:40:30;;;;;;;5.43;3.20;;;13.00;99.90;;;;;;5035492;28;20112;-75
2021/12/31 10:43:23;;;;;;;5.03;3.22;;;13.00;99.90;;;;;;5030853;28;20430;-76
2021/12/31 10:45:57;;;;;;;13.27;4.32;;;12.90;99.90;;;;;;5052425;28;20033;-75
2021/12/31 10:48:43;;;;;;;10.57;3.42;;;13.00;99.90;;;;;;5036151;28;20033;-75
2021/12/31 10:51:11;;;;;;;8.48;3.38;;;13.00;99.90;;;;;;5031796;28;20021;-73
2021/12/31 10:53:37;;;;;;;9.23;4.38;;;13.00;99.90;;;;;;5035941;28;20030;-74
2021/12/31 10:56:08;;;;;;;8.88;4.18;;;12.90;99.90;;;;;;5026634;28;20375;-75
2021/12/31 10:58:35;;;;;;;9.18;4.22;;;12.90;99.90;;;;;;5032057;28;20037;-74
2021/12/31 11:01:05;;;;;;;6.85;4.07;;;12.90;99.90;;;;;;5027291;28;20083;-75
2021/12/31 11:03:33;;;;;;;7.35;4.18;;;12.90;99.90;;;;;;5031594;28;20060;-73
2021/12/31 11:06:00;;;;;;;7.15;3.92;;;12.90;99.90;;;;;;5035535;28;20061;-73
2021/12/31 11:08:27;;;;;;;6.40;3.30;;;12.90;99.90;;;;;;5034545;28;20095;-73
2021/12/31 11:10:54;;;;;;;8.65;3.70;;;12.90;99.90;;;;;;5033214;28;20030;-74
2021/12/31 11:13:22;;;;;;;7.75;4.13;;;12.90;99.90;;;;;;5033216;28;20120;-75
2021/12/31 11:15:52;;;;;;;8.95;4.05;;;12.80;99.90;;;;;;5049510;28;20505;-73
2021/12/31 11:18:23;;;;;;;6.60;3.45;;;12.90;99.90;;;;;;5033774;28;20042;-74
2021/12/31 11:20:55;;;;;;;13.20;3.90;;;12.90;99.90;;;;;;5031653;28;20037;-73
2021/12/31 11:23:26;;;;;;;6.25;4.03;;;12.90;99.90;;;;;;5033309;28;20020;-74
2021/12/31 11:25:58;;;;;;;7.38;3.55;;;12.90;99.90;;;;;;5030721;28;20028;-73
2021/12/31 11:28:29;;;;;;;9.60;3.70;;;13.00;99.90;;;;;;5030435;28;20032;-73
2021/12/31 11:30:56;;;;;;;;;;;12.90;99.90;;;;;;5021424;28;20120;-74
2021/12/31 11:33:28;;;;;;;5.47;3.90;;;12.90;99.90;;;;;;5019207;28;19913;-73
2021/12/31 11:36:01;;;;;;;7.45;3.85;;;12.90;99.90;;;;;;5014644;28;20499;-74
2021/12/31 11:38:26;;;;;;;7.70;3.55;;;12.90;99.90;;;;;;5016292;28;20025;-74
2021/12/31 11:41:11;;;;;;;8.73;4.10;;;12.90;99.90;;;;;;5016609;28;20026;-73
2021/12/31 11:43:38;;;;;;;5.10;3.65;;;12.90;99.90;;;;;;5011507;28;20030;-74
2021/12/31 11:51:11;;;;;;;5.30;4.30;;;12.90;99.90;;;;;;5016295;28;20084;-73
2021/12/31 11:53:55;;;;;;;6.25;3.80;;;12.90;99.90;;;;;;5018102;28;20033;-76
2021/12/31 11:56:34;;;;;;;5.63;3.83;;;12.90;99.90;;;;;;5019010;28;20025;-74
2021/12/31 11:59:08;;;;;;;8.45;3.90;;;12.90;99.90;;;;;;5013858;28;20470;-75
2021/12/31 12:01:37;;;;;;;6.22;4.10;;;12.90;99.90;;;;;;5007103;28;20030;-75
2021/12/31 12:04:24;;;;;;;9.43;3.67;;;12.90;99.90;;;;;;5013073;28;20029;-74
2021/12/31 12:06:51;;;;;;;8.68;4.03;;;12.90;99.90;;;;;;5035678;28;20029;-74
2021/12/31 12:09:17;;;;;;;7.55;3.83;;;12.80;99.90;;;;;;5012114;28;20029;-74
2021/12/31 12:12:14;;;;;;;5.43;3.60;;;12.80;99.90;;;;;;5016372;28;20026;-75
2021/12/31 12:14:45;;;;;;;6.30;3.97;;;12.80;99.90;;;;;;5013392;28;20029;-75
2021/12/31 12:17:29;;;;;;;12.02;4.85;;;12.80;99.90;;;;;;5013146;28;20034;-75
2021/12/31 12:19:57;;;;;;;8.35;5.13;;;12.80;99.90;;;;;;5013693;28;20026;-74
2021/12/31 12:22:32;;;;;;;7.20;4.85;;;12.80;99.90;;;;;;5015212;28;20022;-74
2021/12/31 12:25:05;;;;;;;7.68;4.90;;;12.70;99.90;;;;;;5025153;28;20669;-75
2021/12/31 12:27:31;;;;;;;7.22;4.80;;;12.70;99.90;;;;;;5022334;28;20026;-75
2021/12/31 12:30:02;;;;;;;7.28;4.97;;;12.70;99.90;;;;;;5017286;28;20434;-75
2021/12/31 12:32:36;;;;;;;9.67;5.17;;;12.60;99.90;;;;;;5011808;28;20831;-74
2021/12/31 12:35:17;;;;;;;9.07;4.63;;;12.60;99.90;;;;;;5019637;28;20275;-74
2021/12/31 12:37:53;;;;;;;8.40;4.97;;;12.60;99.90;;;;;;5011839;28;20033;-75
2021/12/31 12:40:19;;;;;;;8.30;5.57;;;12.60;99.90;;;;;;5016404;28;20108;-75
2021/12/31 12:42:45;;;;;;;7.18;4.95;;;12.60;99.90;;;;;;5015084;28;20096;-74
2021/12/31 12:45:11;;;;;;;7.68;5.70;;;12.60;99.90;;;;;;5013298;28;20028;-74
2021/12/31 12:47:37;;;;;;;8.98;5.47;;;12.60;99.90;;;;;;5019120;28;20105;-74